sensor_id;sensor_type;location;lat;lon;timestamp;temperature;humidity
610;DHT22;292;48.800;9.216;2023-04-24T00:00:07;14.00;72.40
610;DHT22;292;48.800;9.216;2023-04-24T00:02:36;14.00;72.40
610;DHT22;292;48.800;9.216;2023-04-24T00:05:06;14.10;72.40
610;DHT22;292;48.800;9.216;2023-04-24T00:07:34;14.10;72.40
610;DHT22;292;48.800;9.216;2023-04-24T00:10:03;14.10;72.40
610;DHT22;292;48.800;9.216;2023-04-24T00:12:31;14.10;72.40
610;DHT22;292;48.800;9.216;2023-04-24T00:14:59;14.10;72.40
610;DHT22;292;48.800;9.216;2023-04-24T00:17:27;14.10;72.20
610;DHT22;292;48.800;9.216;2023-04-24T00:19:54;14.10;72.20
610;DHT22;292;48.800;9.216;2023-04-24T00:22:25;14.10;71.90
610;DHT22;292;48.800;9.216;2023-04-24T00:24:53;14.00;72.10
610;DHT22;292;48.800;9.216;2023-04-24T00:27:21;14.00;72.10
610;DHT22;292;48.800;9.216;2023-04-24T00:29:48;14.10;71.90
610;DHT22;292;48.800;9.216;2023-04-24T00:32:15;14.00;72.10
610;DHT22;292;48.800;9.216;2023-04-24T00:34:43;14.00;71.90
610;DHT22;292;48.800;9.216;2023-04-24T00:37:11;14.00;71.90
610;DHT22;292;48.800;9.216;2023-04-24T00:39:40;14.00;71.90
610;DHT22;292;48.800;9.216;2023-04-24T00:42:08;14.00;71.80
610;DHT22;292;48.800;9.216;2023-04-24T00:44:36;14.00;71.80
610;DHT22;292;48.800;9.216;2023-04-24T00:47:04;14.00;71.90
610;DHT22;292;48.800;9.216;2023-04-24T00:49:31;14.00;72.10
610;DHT22;292;48.800;9.216;2023-04-24T00:51:58;14.00;71.90
610;DHT22;292;48.800;9.216;2023-04-24T00:54:25;14.00;71.60
610;DHT22;292;48.800;9.216;2023-04-24T00:56:53;14.00;71.80
610;DHT22;292;48.800;9.216;2023-04-24T00:59:22;14.00;71.60
610;DHT22;292;48.800;9.216;2023-04-24T01:01:49;14.10;71.50
610;DHT22;292;48.800;9.216;2023-04-24T01:04:18;14.10;71.50
610;DHT22;292;48.800;9.216;2023-04-24T01:06:48;14.10;71.30
610;DHT22;292;48.800;9.216;2023-04-24T01:09:17;14.10;71.10
610;DHT22;292;48.800;9.216;2023-04-24T01:11:45;14.20;71.10
610;DHT22;292;48.800;9.216;2023-04-24T01:14:14;14.20;70.90
610;DHT22;292;48.800;9.216;2023-04-24T01:16:43;14.20;70.50
610;DHT22;292;48.800;9.216;2023-04-24T01:19:10;14.20;70.30
610;DHT22;292;48.800;9.216;2023-04-24T01:21:40;14.30;70.20
610;DHT22;292;48.800;9.216;2023-04-24T01:24:12;14.30;70.00
610;DHT22;292;48.800;9.216;2023-04-24T01:26:39;14.30;69.80
610;DHT22;292;48.800;9.216;2023-04-24T01:29:06;14.30;69.60
610;DHT22;292;48.800;9.216;2023-04-24T01:31:34;14.30;69.30
610;DHT22;292;48.800;9.216;2023-04-24T01:34:02;14.30;69.50
610;DHT22;292;48.800;9.216;2023-04-24T01:36:30;14.30;69.30
610;DHT22;292;48.800;9.216;2023-04-24T01:38:58;14.30;69.50
610;DHT22;292;48.800;9.216;2023-04-24T01:41:33;14.30;69.50
610;DHT22;292;48.800;9.216;2023-04-24T01:44:00;14.30;69.50
610;DHT22;292;48.800;9.216;2023-04-24T01:46:28;14.30;69.30
610;DHT22;292;48.800;9.216;2023-04-24T01:48:59;14.30;69.30
610;DHT22;292;48.800;9.216;2023-04-24T01:51:26;14.20;69.50
610;DHT22;292;48.800;9.216;2023-04-24T01:53:54;14.20;69.60
610;DHT22;292;48.800;9.216;2023-04-24T01:56:22;14.30;69.60
610;DHT22;292;48.800;9.216;2023-04-24T01:58:52;14.20;69.80
610;DHT22;292;48.800;9.216;2023-04-24T02:01:24;14.20;69.80
610;DHT22;292;48.800;9.216;2023-04-24T02:03:51;14.20;69.90
610;DHT22;292;48.800;9.216;2023-04-24T02:06:20;14.20;70.00
610;DHT22;292;48.800;9.216;2023-04-24T02:08:49;14.20;70.00
610;DHT22;292;48.800;9.216;2023-04-24T02:11:19;14.20;70.00
610;DHT22;292;48.800;9.216;2023-04-24T02:13:48;14.20;70.20
610;DHT22;292;48.800;9.216;2023-04-24T02:16:17;14.20;70.00
610;DHT22;292;48.800;9.216;2023-04-24T02:18:44;14.20;70.20
610;DHT22;292;48.800;9.216;2023-04-24T02:21:11;14.20;70.30
610;DHT22;292;48.800;9.216;2023-04-24T02:23:38;14.20;70.20
610;DHT22;292;48.800;9.216;2023-04-24T02:26:06;14.20;70.00
610;DHT22;292;48.800;9.216;2023-04-24T02:28:33;14.20;70.00
610;DHT22;292;48.800;9.216;2023-04-24T02:31:00;14.20;70.20
610;DHT22;292;48.800;9.216;2023-04-24T02:33:32;14.20;70.20
610;DHT22;292;48.800;9.216;2023-04-24T02:35:59;14.10;69.90
610;DHT22;292;48.800;9.216;2023-04-24T02:38:27;14.20;69.90
610;DHT22;292;48.800;9.216;2023-04-24T02:40:54;14.10;69.90
610;DHT22;292;48.800;9.216;2023-04-24T02:43:21;14.10;70.20
610;DHT22;292;48.800;9.216;2023-04-24T02:45:49;14.10;70.20
610;DHT22;292;48.800;9.216;2023-04-24T02:48:16;14.10;70.50
610;DHT22;292;48.800;9.216;2023-04-24T02:50:45;14.10;70.80
610;DHT22;292;48.800;9.216;2023-04-24T02:53:13;14.10;71.30
610;DHT22;292;48.800;9.216;2023-04-24T02:55:40;14.10;71.60
610;DHT22;292;48.800;9.216;2023-04-24T02:58:08;14.00;72.40
610;DHT22;292;48.800;9.216;2023-04-24T03:00:36;14.00;72.90
610;DHT22;292;48.800;9.216;2023-04-24T03:03:03;14.00;73.20
610;DHT22;292;48.800;9.216;2023-04-24T03:05:31;13.90;73.70
610;DHT22;292;48.800;9.216;2023-04-24T03:07:59;13.90;73.90
610;DHT22;292;48.800;9.216;2023-04-24T03:10:27;13.90;74.10
610;DHT22;292;48.800;9.216;2023-04-24T03:12:54;13.80;74.40
610;DHT22;292;48.800;9.216;2023-04-24T03:15:22;13.80;74.50
610;DHT22;292;48.800;9.216;2023-04-24T03:17:49;13.70;74.70
610;DHT22;292;48.800;9.216;2023-04-24T03:20:16;13.70;75.10
610;DHT22;292;48.800;9.216;2023-04-24T03:22:43;13.70;75.20
610;DHT22;292;48.800;9.216;2023-04-24T03:25:13;13.70;75.50
610;DHT22;292;48.800;9.216;2023-04-24T03:27:42;13.70;75.50
610;DHT22;292;48.800;9.216;2023-04-24T03:30:09;13.70;75.50
610;DHT22;292;48.800;9.216;2023-04-24T03:32:37;13.70;75.40
610;DHT22;292;48.800;9.216;2023-04-24T03:35:05;13.60;75.70
610;DHT22;292;48.800;9.216;2023-04-24T03:37:33;13.60;75.80
610;DHT22;292;48.800;9.216;2023-04-24T03:40:00;13.60;75.50
610;DHT22;292;48.800;9.216;2023-04-24T03:42:31;13.50;75.80
610;DHT22;292;48.800;9.216;2023-04-24T03:44:58;13.50;76.00
610;DHT22;292;48.800;9.216;2023-04-24T03:47:25;13.50;76.10
610;DHT22;292;48.800;9.216;2023-04-24T03:49:52;13.50;76.10
610;DHT22;292;48.800;9.216;2023-04-24T03:52:21;13.50;76.10
610;DHT22;292;48.800;9.216;2023-04-24T03:54:48;13.40;76.40
610;DHT22;292;48.800;9.216;2023-04-24T03:57:16;13.40;76.20
610;DHT22;292;48.800;9.216;2023-04-24T03:59:44;13.40;76.20
610;DHT22;292;48.800;9.216;2023-04-24T04:02:12;13.40;76.20
610;DHT22;292;48.800;9.216;2023-04-24T04:04:39;13.40;76.40
610;DHT22;292;48.800;9.216;2023-04-24T04:07:06;13.40;76.40
610;DHT22;292;48.800;9.216;2023-04-24T04:09:34;13.40;76.40
610;DHT22;292;48.800;9.216;2023-04-24T04:12:01;13.40;76.40
610;DHT22;292;48.800;9.216;2023-04-24T04:14:31;13.40;76.20
610;DHT22;292;48.800;9.216;2023-04-24T04:17:02;13.40;76.10
610;DHT22;292;48.800;9.216;2023-04-24T04:19:30;13.40;76.20
610;DHT22;292;48.800;9.216;2023-04-24T04:21:57;13.40;76.20
610;DHT22;292;48.800;9.216;2023-04-24T04:24:24;13.40;76.20
610;DHT22;292;48.800;9.216;2023-04-24T04:26:52;13.40;76.40
610;DHT22;292;48.800;9.216;2023-04-24T04:29:22;13.50;76.50
610;DHT22;292;48.800;9.216;2023-04-24T04:31:49;13.50;76.40
610;DHT22;292;48.800;9.216;2023-04-24T04:34:17;13.50;75.70
610;DHT22;292;48.800;9.216;2023-04-24T04:36:45;13.50;76.00
610;DHT22;292;48.800;9.216;2023-04-24T04:39:12;13.40;76.20
610;DHT22;292;48.800;9.216;2023-04-24T04:41:41;13.40;76.00
610;DHT22;292;48.800;9.216;2023-04-24T04:44:09;13.40;75.50
610;DHT22;292;48.800;9.216;2023-04-24T04:46:37;13.30;74.80
610;DHT22;292;48.800;9.216;2023-04-24T04:49:04;13.30;74.20
610;DHT22;292;48.800;9.216;2023-04-24T04:51:32;13.30;73.90
610;DHT22;292;48.800;9.216;2023-04-24T04:54:03;13.30;73.80
610;DHT22;292;48.800;9.216;2023-04-24T04:56:31;13.30;73.70
610;DHT22;292;48.800;9.216;2023-04-24T04:58:59;13.30;73.70
610;DHT22;292;48.800;9.216;2023-04-24T05:01:27;13.30;73.70
610;DHT22;292;48.800;9.216;2023-04-24T05:03:57;13.30;73.80
610;DHT22;292;48.800;9.216;2023-04-24T05:06:26;13.30;73.90
610;DHT22;292;48.800;9.216;2023-04-24T05:08:55;13.30;73.40
610;DHT22;292;48.800;9.216;2023-04-24T05:11:22;13.30;72.60
610;DHT22;292;48.800;9.216;2023-04-24T05:13:50;13.30;72.80
610;DHT22;292;48.800;9.216;2023-04-24T05:16:17;13.20;72.80
610;DHT22;292;48.800;9.216;2023-04-24T05:18:44;13.20;72.60
610;DHT22;292;48.800;9.216;2023-04-24T05:21:13;13.20;72.50
610;DHT22;292;48.800;9.216;2023-04-24T05:23:41;13.20;71.60
610;DHT22;292;48.800;9.216;2023-04-24T05:26:10;13.10;71.50
610;DHT22;292;48.800;9.216;2023-04-24T05:28:38;13.10;71.80
610;DHT22;292;48.800;9.216;2023-04-24T05:31:06;13.00;71.90
610;DHT22;292;48.800;9.216;2023-04-24T05:33:33;13.00;71.90
610;DHT22;292;48.800;9.216;2023-04-24T05:36:00;13.00;72.10
610;DHT22;292;48.800;9.216;2023-04-24T05:38:29;13.00;72.60
610;DHT22;292;48.800;9.216;2023-04-24T05:40:56;13.00;72.80
610;DHT22;292;48.800;9.216;2023-04-24T05:43:24;13.10;72.80
610;DHT22;292;48.800;9.216;2023-04-24T05:45:52;13.10;72.50
610;DHT22;292;48.800;9.216;2023-04-24T05:48:23;13.10;72.20
610;DHT22;292;48.800;9.216;2023-04-24T05:50:52;13.00;71.90
610;DHT22;292;48.800;9.216;2023-04-24T05:53:19;13.00;71.80
610;DHT22;292;48.800;9.216;2023-04-24T05:55:47;13.00;71.90
610;DHT22;292;48.800;9.216;2023-04-24T05:58:15;13.00;72.10
610;DHT22;292;48.800;9.216;2023-04-24T06:00:44;13.00;72.10
610;DHT22;292;48.800;9.216;2023-04-24T06:03:16;13.10;72.20
610;DHT22;292;48.800;9.216;2023-04-24T06:05:43;13.10;72.40
610;DHT22;292;48.800;9.216;2023-04-24T06:08:11;13.10;72.40
610;DHT22;292;48.800;9.216;2023-04-24T06:10:38;13.10;72.40
610;DHT22;292;48.800;9.216;2023-04-24T06:13:06;13.10;72.20
610;DHT22;292;48.800;9.216;2023-04-24T06:15:33;13.10;72.10
610;DHT22;292;48.800;9.216;2023-04-24T06:18:02;13.10;71.90
610;DHT22;292;48.800;9.216;2023-04-24T06:20:29;13.20;71.90
610;DHT22;292;48.800;9.216;2023-04-24T06:22:56;13.20;71.80
610;DHT22;292;48.800;9.216;2023-04-24T06:25:25;13.10;71.80
610;DHT22;292;48.800;9.216;2023-04-24T06:27:56;13.20;71.60
610;DHT22;292;48.800;9.216;2023-04-24T06:30:25;13.20;71.30
610;DHT22;292;48.800;9.216;2023-04-24T06:32:54;13.20;71.20
610;DHT22;292;48.800;9.216;2023-04-24T06:35:22;13.20;71.30
610;DHT22;292;48.800;9.216;2023-04-24T06:37:51;13.30;71.30
610;DHT22;292;48.800;9.216;2023-04-24T06:40:18;13.30;71.20
610;DHT22;292;48.800;9.216;2023-04-24T06:42:45;13.30;70.90
610;DHT22;292;48.800;9.216;2023-04-24T06:45:12;13.30;70.80
610;DHT22;292;48.800;9.216;2023-04-24T06:47:39;13.40;70.60
610;DHT22;292;48.800;9.216;2023-04-24T06:50:07;13.50;70.60
610;DHT22;292;48.800;9.216;2023-04-24T06:52:35;13.50;70.20
610;DHT22;292;48.800;9.216;2023-04-24T06:55:03;13.50;69.20
610;DHT22;292;48.800;9.216;2023-04-24T06:57:31;13.60;68.30
610;DHT22;292;48.800;9.216;2023-04-24T07:00:01;13.60;68.50
610;DHT22;292;48.800;9.216;2023-04-24T07:02:28;13.60;68.50
610;DHT22;292;48.800;9.216;2023-04-24T07:04:55;13.70;68.30
610;DHT22;292;48.800;9.216;2023-04-24T07:07:22;13.70;67.90
610;DHT22;292;48.800;9.216;2023-04-24T07:09:51;13.70;67.50
610;DHT22;292;48.800;9.216;2023-04-24T07:12:19;13.80;66.40
610;DHT22;292;48.800;9.216;2023-04-24T07:14:47;14.00;65.90
610;DHT22;292;48.800;9.216;2023-04-24T07:17:14;14.00;64.70
610;DHT22;292;48.800;9.216;2023-04-24T07:19:41;14.10;64.10
610;DHT22;292;48.800;9.216;2023-04-24T07:22:09;14.10;64.00
610;DHT22;292;48.800;9.216;2023-04-24T07:24:37;14.20;63.40
610;DHT22;292;48.800;9.216;2023-04-24T07:27:05;14.20;63.30
610;DHT22;292;48.800;9.216;2023-04-24T07:29:32;14.20;63.10
610;DHT22;292;48.800;9.216;2023-04-24T07:31:59;14.20;62.50
610;DHT22;292;48.800;9.216;2023-04-24T07:34:27;14.10;62.00
610;DHT22;292;48.800;9.216;2023-04-24T07:36:54;14.10;61.20
610;DHT22;292;48.800;9.216;2023-04-24T07:39:22;14.10;60.50
610;DHT22;292;48.800;9.216;2023-04-24T07:41:48;14.10;60.50
610;DHT22;292;48.800;9.216;2023-04-24T07:44:17;14.20;61.00
610;DHT22;292;48.800;9.216;2023-04-24T07:46:45;14.20;60.70
610;DHT22;292;48.800;9.216;2023-04-24T07:49:12;14.30;59.20
610;DHT22;292;48.800;9.216;2023-04-24T07:51:39;14.30;58.40
610;DHT22;292;48.800;9.216;2023-04-24T07:54:07;14.40;57.40
610;DHT22;292;48.800;9.216;2023-04-24T07:56:34;14.50;56.00
610;DHT22;292;48.800;9.216;2023-04-24T07:59:04;14.50;55.30
610;DHT22;292;48.800;9.216;2023-04-24T08:01:33;14.50;54.60
610;DHT22;292;48.800;9.216;2023-04-24T08:04:00;14.50;54.40
610;DHT22;292;48.800;9.216;2023-04-24T08:06:27;14.50;53.70
610;DHT22;292;48.800;9.216;2023-04-24T08:08:57;14.50;53.20
610;DHT22;292;48.800;9.216;2023-04-24T08:11:24;14.50;53.20
610;DHT22;292;48.800;9.216;2023-04-24T08:13:51;14.50;53.20
610;DHT22;292;48.800;9.216;2023-04-24T08:16:18;14.50;53.00
610;DHT22;292;48.800;9.216;2023-04-24T08:18:47;14.50;52.50
610;DHT22;292;48.800;9.216;2023-04-24T08:21:14;14.50;52.80
610;DHT22;292;48.800;9.216;2023-04-24T08:23:43;14.50;52.90
610;DHT22;292;48.800;9.216;2023-04-24T08:26:11;14.50;52.60
610;DHT22;292;48.800;9.216;2023-04-24T08:28:38;14.50;52.00
610;DHT22;292;48.800;9.216;2023-04-24T08:31:06;14.50;51.80
610;DHT22;292;48.800;9.216;2023-04-24T08:33:33;14.50;50.80
610;DHT22;292;48.800;9.216;2023-04-24T08:36:05;14.50;50.50
610;DHT22;292;48.800;9.216;2023-04-24T08:38:33;14.50;50.60
610;DHT22;292;48.800;9.216;2023-04-24T08:41:01;14.40;50.40
610;DHT22;292;48.800;9.216;2023-04-24T08:43:28;14.40;50.50
610;DHT22;292;48.800;9.216;2023-04-24T08:45:56;14.40;50.60
610;DHT22;292;48.800;9.216;2023-04-24T08:48:26;14.40;50.40
610;DHT22;292;48.800;9.216;2023-04-24T08:50:54;14.40;50.50
610;DHT22;292;48.800;9.216;2023-04-24T08:53:25;14.30;50.40
610;DHT22;292;48.800;9.216;2023-04-24T08:55:54;14.20;50.90
610;DHT22;292;48.800;9.216;2023-04-24T08:58:23;14.20;51.30
610;DHT22;292;48.800;9.216;2023-04-24T09:00:53;14.10;51.00
610;DHT22;292;48.800;9.216;2023-04-24T09:03:21;14.10;50.90
610;DHT22;292;48.800;9.216;2023-04-24T09:05:50;14.10;51.20
610;DHT22;292;48.800;9.216;2023-04-24T09:08:18;14.00;51.70
610;DHT22;292;48.800;9.216;2023-04-24T09:10:47;14.00;52.10
610;DHT22;292;48.800;9.216;2023-04-24T09:13:14;14.00;52.40
610;DHT22;292;48.800;9.216;2023-04-24T09:15:42;14.00;52.60
610;DHT22;292;48.800;9.216;2023-04-24T09:18:09;14.00;52.90
610;DHT22;292;48.800;9.216;2023-04-24T09:20:58;14.00;53.00
610;DHT22;292;48.800;9.216;2023-04-24T09:23:27;14.00;52.80
610;DHT22;292;48.800;9.216;2023-04-24T09:25:58;13.90;53.30
610;DHT22;292;48.800;9.216;2023-04-24T09:28:29;13.70;54.10
610;DHT22;292;48.800;9.216;2023-04-24T09:31:08;13.70;55.00
610;DHT22;292;48.800;9.216;2023-04-24T09:33:37;13.60;55.70
610;DHT22;292;48.800;9.216;2023-04-24T09:36:04;13.50;56.20
610;DHT22;292;48.800;9.216;2023-04-24T09:38:34;13.40;57.00
610;DHT22;292;48.800;9.216;2023-04-24T09:41:05;13.30;57.70
610;DHT22;292;48.800;9.216;2023-04-24T09:43:35;13.30;58.20
610;DHT22;292;48.800;9.216;2023-04-24T09:46:05;13.30;58.10
610;DHT22;292;48.800;9.216;2023-04-24T09:48:34;13.30;58.20
610;DHT22;292;48.800;9.216;2023-04-24T09:51:02;13.30;58.40
610;DHT22;292;48.800;9.216;2023-04-24T09:53:30;13.30;58.20
610;DHT22;292;48.800;9.216;2023-04-24T09:56:07;13.40;58.40
610;DHT22;292;48.800;9.216;2023-04-24T09:58:35;13.50;57.80
610;DHT22;292;48.800;9.216;2023-04-24T10:01:03;13.50;57.30
610;DHT22;292;48.800;9.216;2023-04-24T10:03:34;13.60;57.00
610;DHT22;292;48.800;9.216;2023-04-24T10:06:03;13.70;56.20
610;DHT22;292;48.800;9.216;2023-04-24T10:08:34;13.70;56.00
610;DHT22;292;48.800;9.216;2023-04-24T10:11:03;13.80;55.00
610;DHT22;292;48.800;9.216;2023-04-24T10:13:32;13.80;53.60
610;DHT22;292;48.800;9.216;2023-04-24T10:16:00;13.80;52.80
610;DHT22;292;48.800;9.216;2023-04-24T10:18:29;13.90;51.80
610;DHT22;292;48.800;9.216;2023-04-24T10:20:59;13.80;51.80
610;DHT22;292;48.800;9.216;2023-04-24T10:23:27;13.90;51.80
610;DHT22;292;48.800;9.216;2023-04-24T10:25:55;14.00;51.00
610;DHT22;292;48.800;9.216;2023-04-24T10:28:24;14.10;51.00
610;DHT22;292;48.800;9.216;2023-04-24T10:30:54;14.20;50.60
610;DHT22;292;48.800;9.216;2023-04-24T10:33:22;14.30;50.20
610;DHT22;292;48.800;9.216;2023-04-24T10:35:51;14.40;48.90
610;DHT22;292;48.800;9.216;2023-04-24T10:38:22;14.50;48.60
610;DHT22;292;48.800;9.216;2023-04-24T10:40:51;14.60;47.80
610;DHT22;292;48.800;9.216;2023-04-24T10:43:19;14.70;47.40
610;DHT22;292;48.800;9.216;2023-04-24T10:46:03;14.70;46.00
610;DHT22;292;48.800;9.216;2023-04-24T10:48:31;14.60;46.00
610;DHT22;292;48.800;9.216;2023-04-24T10:50:59;14.60;45.80
610;DHT22;292;48.800;9.216;2023-04-24T10:53:28;14.50;46.10
610;DHT22;292;48.800;9.216;2023-04-24T10:55:59;14.40;46.40
610;DHT22;292;48.800;9.216;2023-04-24T10:58:37;14.40;46.90
610;DHT22;292;48.800;9.216;2023-04-24T11:01:07;14.40;47.30
610;DHT22;292;48.800;9.216;2023-04-24T11:03:35;14.40;47.30
610;DHT22;292;48.800;9.216;2023-04-24T11:06:04;14.40;47.20
610;DHT22;292;48.800;9.216;2023-04-24T11:08:37;14.40;47.30
610;DHT22;292;48.800;9.216;2023-04-24T11:11:09;14.40;47.30
610;DHT22;292;48.800;9.216;2023-04-24T11:14:03;14.30;47.30
610;DHT22;292;48.800;9.216;2023-04-24T11:16:34;14.20;47.70
610;DHT22;292;48.800;9.216;2023-04-24T11:19:05;14.10;48.20
610;DHT22;292;48.800;9.216;2023-04-24T11:21:39;14.10;48.50
610;DHT22;292;48.800;9.216;2023-04-24T11:24:28;14.00;48.40
610;DHT22;292;48.800;9.216;2023-04-24T11:26:58;13.90;48.20
610;DHT22;292;48.800;9.216;2023-04-24T11:29:41;13.90;48.40
610;DHT22;292;48.800;9.216;2023-04-24T11:32:19;13.90;48.20
610;DHT22;292;48.800;9.216;2023-04-24T11:34:50;13.90;48.40
610;DHT22;292;48.800;9.216;2023-04-24T11:37:17;13.90;48.40
610;DHT22;292;48.800;9.216;2023-04-24T11:39:44;14.00;48.00
610;DHT22;292;48.800;9.216;2023-04-24T11:42:14;14.00;48.20
610;DHT22;292;48.800;9.216;2023-04-24T11:44:42;14.00;48.20
610;DHT22;292;48.800;9.216;2023-04-24T11:47:09;14.10;48.20
610;DHT22;292;48.800;9.216;2023-04-24T11:49:38;14.20;48.40
610;DHT22;292;48.800;9.216;2023-04-24T11:52:06;14.20;48.80
610;DHT22;292;48.800;9.216;2023-04-24T11:54:33;14.30;48.20
610;DHT22;292;48.800;9.216;2023-04-24T11:57:04;14.30;48.40
610;DHT22;292;48.800;9.216;2023-04-24T11:59:36;14.40;48.60
610;DHT22;292;48.800;9.216;2023-04-24T12:02:05;14.30;50.40
610;DHT22;292;48.800;9.216;2023-04-24T12:04:41;14.30;51.30
610;DHT22;292;48.800;9.216;2023-04-24T12:07:08;14.20;51.70
610;DHT22;292;48.800;9.216;2023-04-24T12:09:42;14.20;52.10
610;DHT22;292;48.800;9.216;2023-04-24T12:12:11;14.20;52.50
610;DHT22;292;48.800;9.216;2023-04-24T12:14:48;14.20;51.00
610;DHT22;292;48.800;9.216;2023-04-24T12:17:16;14.20;50.00
610;DHT22;292;48.800;9.216;2023-04-24T12:19:48;14.30;50.00
610;DHT22;292;48.800;9.216;2023-04-24T12:22:16;14.30;50.20
610;DHT22;292;48.800;9.216;2023-04-24T12:25:00;14.40;50.10
610;DHT22;292;48.800;9.216;2023-04-24T12:27:30;14.40;49.30
610;DHT22;292;48.800;9.216;2023-04-24T12:29:58;14.30;49.00
610;DHT22;292;48.800;9.216;2023-04-24T12:32:27;14.30;49.00
610;DHT22;292;48.800;9.216;2023-04-24T12:34:57;14.30;48.80
610;DHT22;292;48.800;9.216;2023-04-24T12:37:26;14.20;48.60
610;DHT22;292;48.800;9.216;2023-04-24T12:40:01;14.20;49.00
610;DHT22;292;48.800;9.216;2023-04-24T12:42:30;14.20;49.30
610;DHT22;292;48.800;9.216;2023-04-24T12:44:58;14.20;49.00
610;DHT22;292;48.800;9.216;2023-04-24T12:47:26;14.20;49.20
610;DHT22;292;48.800;9.216;2023-04-24T12:49:55;14.20;49.30
610;DHT22;292;48.800;9.216;2023-04-24T12:52:24;14.20;48.90
610;DHT22;292;48.800;9.216;2023-04-24T12:54:53;14.20;48.80
610;DHT22;292;48.800;9.216;2023-04-24T12:57:21;14.30;48.80
610;DHT22;292;48.800;9.216;2023-04-24T12:59:48;14.30;49.00
610;DHT22;292;48.800;9.216;2023-04-24T13:02:16;14.30;48.80
610;DHT22;292;48.800;9.216;2023-04-24T13:04:45;14.30;48.80
610;DHT22;292;48.800;9.216;2023-04-24T13:07:14;14.30;48.90
610;DHT22;292;48.800;9.216;2023-04-24T13:09:41;14.20;51.60
610;DHT22;292;48.800;9.216;2023-04-24T13:12:09;13.90;54.40
610;DHT22;292;48.800;9.216;2023-04-24T13:14:37;13.60;55.80
610;DHT22;292;48.800;9.216;2023-04-24T13:17:04;13.50;57.00
610;DHT22;292;48.800;9.216;2023-04-24T13:19:36;13.30;56.90
610;DHT22;292;48.800;9.216;2023-04-24T13:22:03;13.30;58.10
610;DHT22;292;48.800;9.216;2023-04-24T13:24:32;13.30;58.90
610;DHT22;292;48.800;9.216;2023-04-24T13:27:00;13.40;58.40
610;DHT22;292;48.800;9.216;2023-04-24T13:29:28;13.50;58.20
610;DHT22;292;48.800;9.216;2023-04-24T13:31:55;13.60;57.30
610;DHT22;292;48.800;9.216;2023-04-24T13:34:23;13.60;57.20
610;DHT22;292;48.800;9.216;2023-04-24T13:36:50;13.60;57.40
610;DHT22;292;48.800;9.216;2023-04-24T13:39:18;13.70;57.30
610;DHT22;292;48.800;9.216;2023-04-24T13:41:46;13.80;57.00
610;DHT22;292;48.800;9.216;2023-04-24T13:44:14;13.80;56.90
610;DHT22;292;48.800;9.216;2023-04-24T13:46:41;13.90;57.20
610;DHT22;292;48.800;9.216;2023-04-24T13:49:09;14.00;56.80
610;DHT22;292;48.800;9.216;2023-04-24T13:51:37;14.10;55.60
610;DHT22;292;48.800;9.216;2023-04-24T13:54:04;14.10;54.00
610;DHT22;292;48.800;9.216;2023-04-24T13:56:31;14.10;54.50
610;DHT22;292;48.800;9.216;2023-04-24T13:59:00;14.00;56.50
610;DHT22;292;48.800;9.216;2023-04-24T14:01:27;13.80;57.70
610;DHT22;292;48.800;9.216;2023-04-24T14:03:56;13.70;58.80
610;DHT22;292;48.800;9.216;2023-04-24T14:06:23;13.50;59.60
610;DHT22;292;48.800;9.216;2023-04-24T14:08:51;13.40;59.80
610;DHT22;292;48.800;9.216;2023-04-24T14:11:19;13.30;60.50
610;DHT22;292;48.800;9.216;2023-04-24T14:13:47;13.20;61.50
610;DHT22;292;48.800;9.216;2023-04-24T14:16:16;13.30;62.40
610;DHT22;292;48.800;9.216;2023-04-24T14:18:44;13.50;62.50
610;DHT22;292;48.800;9.216;2023-04-24T14:21:11;13.70;62.00
610;DHT22;292;48.800;9.216;2023-04-24T14:23:38;13.90;61.50
610;DHT22;292;48.800;9.216;2023-04-24T14:26:05;14.10;60.50
610;DHT22;292;48.800;9.216;2023-04-24T14:28:32;14.30;60.20
610;DHT22;292;48.800;9.216;2023-04-24T14:31:00;14.40;59.60
610;DHT22;292;48.800;9.216;2023-04-24T14:33:28;14.60;59.00
610;DHT22;292;48.800;9.216;2023-04-24T14:35:55;14.70;58.60
610;DHT22;292;48.800;9.216;2023-04-24T14:38:23;14.80;58.20
610;DHT22;292;48.800;9.216;2023-04-24T14:40:50;14.90;58.00
610;DHT22;292;48.800;9.216;2023-04-24T14:43:17;14.90;56.50
610;DHT22;292;48.800;9.216;2023-04-24T14:45:44;14.90;55.80
610;DHT22;292;48.800;9.216;2023-04-24T14:48:11;15.00;55.20
610;DHT22;292;48.800;9.216;2023-04-24T14:50:40;15.00;54.50
610;DHT22;292;48.800;9.216;2023-04-24T14:53:07;15.00;54.20
610;DHT22;292;48.800;9.216;2023-04-24T14:55:34;15.00;53.80
610;DHT22;292;48.800;9.216;2023-04-24T14:58:01;14.90;53.40
610;DHT22;292;48.800;9.216;2023-04-24T15:00:28;14.90;53.70
610;DHT22;292;48.800;9.216;2023-04-24T15:02:56;14.90;53.40
610;DHT22;292;48.800;9.216;2023-04-24T15:05:23;15.00;53.40
610;DHT22;292;48.800;9.216;2023-04-24T15:07:51;15.00;53.60
610;DHT22;292;48.800;9.216;2023-04-24T15:10:22;15.00;53.60
610;DHT22;292;48.800;9.216;2023-04-24T15:12:51;15.10;52.80
610;DHT22;292;48.800;9.216;2023-04-24T15:15:18;15.20;52.90
610;DHT22;292;48.800;9.216;2023-04-24T15:17:45;15.20;52.90
610;DHT22;292;48.800;9.216;2023-04-24T15:20:12;15.20;52.90
610;DHT22;292;48.800;9.216;2023-04-24T15:22:39;15.20;52.10
610;DHT22;292;48.800;9.216;2023-04-24T15:25:09;15.10;51.60
610;DHT22;292;48.800;9.216;2023-04-24T15:27:41;15.00;51.60
610;DHT22;292;48.800;9.216;2023-04-24T15:30:09;15.00;51.40
610;DHT22;292;48.800;9.216;2023-04-24T15:32:38;14.90;51.40
610;DHT22;292;48.800;9.216;2023-04-24T15:35:06;14.80;51.40
610;DHT22;292;48.800;9.216;2023-04-24T15:37:33;14.70;51.40
610;DHT22;292;48.800;9.216;2023-04-24T15:40:00;14.70;51.80
610;DHT22;292;48.800;9.216;2023-04-24T15:42:31;14.60;52.80
610;DHT22;292;48.800;9.216;2023-04-24T15:44:59;14.40;54.60
610;DHT22;292;48.800;9.216;2023-04-24T15:47:27;14.30;55.60
610;DHT22;292;48.800;9.216;2023-04-24T15:49:55;14.20;56.00
610;DHT22;292;48.800;9.216;2023-04-24T15:52:22;14.20;56.90
610;DHT22;292;48.800;9.216;2023-04-24T15:54:49;14.10;57.60
610;DHT22;292;48.800;9.216;2023-04-24T15:57:17;14.10;58.20
610;DHT22;292;48.800;9.216;2023-04-24T15:59:46;14.00;58.90
610;DHT22;292;48.800;9.216;2023-04-24T16:02:14;14.00;58.90
610;DHT22;292;48.800;9.216;2023-04-24T16:04:45;14.00;58.60
610;DHT22;292;48.800;9.216;2023-04-24T16:07:12;14.00;59.30
610;DHT22;292;48.800;9.216;2023-04-24T16:09:39;14.00;59.60
610;DHT22;292;48.800;9.216;2023-04-24T16:12:07;14.00;59.70
610;DHT22;292;48.800;9.216;2023-04-24T16:14:35;14.00;59.70
610;DHT22;292;48.800;9.216;2023-04-24T16:17:05;14.00;60.00
610;DHT22;292;48.800;9.216;2023-04-24T16:19:33;14.00;60.00
610;DHT22;292;48.800;9.216;2023-04-24T16:22:03;14.10;60.00
610;DHT22;292;48.800;9.216;2023-04-24T16:24:31;14.20;60.20
610;DHT22;292;48.800;9.216;2023-04-24T16:26:58;14.30;60.00
610;DHT22;292;48.800;9.216;2023-04-24T16:29:27;14.40;60.00
610;DHT22;292;48.800;9.216;2023-04-24T16:31:55;14.60;60.10
610;DHT22;292;48.800;9.216;2023-04-24T16:34:23;14.70;59.80
610;DHT22;292;48.800;9.216;2023-04-24T16:36:50;14.80;59.00
610;DHT22;292;48.800;9.216;2023-04-24T16:39:18;14.90;58.60
610;DHT22;292;48.800;9.216;2023-04-24T16:41:46;15.00;57.60